createdAt,value
2023-05-21T00:00:09.380Z,12.83
2023-05-21T00:03:14.478Z,10.25
2023-05-21T00:06:16.804Z,11.05
2023-05-21T00:09:18.818Z,11.13
2023-05-21T00:12:20.793Z,11.27
2023-05-21T00:15:22.789Z,13.57
2023-05-21T00:18:25.550Z,13.25
2023-05-21T00:21:27.591Z,10.73
2023-05-21T00:24:29.700Z,12.25
2023-05-21T00:27:31.736Z,14.52
2023-05-21T00:30:33.785Z,11.57
2023-05-21T00:33:35.744Z,10.52
2023-05-21T00:36:38.126Z,10.05
2023-05-21T00:39:40.166Z,11.68
2023-05-21T00:42:42.293Z,10.15
2023-05-21T00:45:48.512Z,9.97
2023-05-21T00:48:51.059Z,10.38
2023-05-21T00:51:54.903Z,10.48
2023-05-21T00:54:56.997Z,10.75
2023-05-21T00:57:59.020Z,13.27
2023-05-21T01:01:07.038Z,11.50
2023-05-21T01:04:09.634Z,12.20
2023-05-21T01:07:12.563Z,11.20
2023-05-21T01:10:14.534Z,11.75
2023-05-21T01:13:17.833Z,9.98
2023-05-21T01:16:20.095Z,11.27
2023-05-21T01:19:24.226Z,11.50
2023-05-21T01:22:29.266Z,10.63
2023-05-21T01:25:31.343Z,13.27
2023-05-21T01:28:34.577Z,12.20
2023-05-21T01:31:53.708Z,12.47
2023-05-21T01:35:09.607Z,11.30
2023-05-21T01:38:23.885Z,10.52
2023-05-21T01:41:27.222Z,10.23
2023-05-21T01:44:30.317Z,12.30
2023-05-21T01:47:33.129Z,10.83
2023-05-21T01:50:37.418Z,14.95
2023-05-21T01:53:40.698Z,12.95
2023-05-21T01:56:42.743Z,11.13
2023-05-21T01:59:45.621Z,10.70
2023-05-21T02:02:47.760Z,12.77
2023-05-21T02:05:52.026Z,11.80
2023-05-21T02:08:55.637Z,13.20
2023-05-21T02:11:58.315Z,11.07
2023-05-21T02:15:00.340Z,10.98
2023-05-21T02:18:02.679Z,12.83
2023-05-21T02:21:04.694Z,11.65
2023-05-21T02:24:07.021Z,11.55
2023-05-21T02:27:10.617Z,10.48
2023-05-21T02:30:14.563Z,10.48
2023-05-21T02:33:16.795Z,9.90
2023-05-21T02:36:19.600Z,9.35
2023-05-21T02:39:21.832Z,10.50
2023-05-21T02:42:24.319Z,11.07
2023-05-21T02:45:26.652Z,12.48
2023-05-21T02:48:28.698Z,9.70
2023-05-21T02:51:30.837Z,11.60
2023-05-21T02:54:32.873Z,12.15
2023-05-21T02:57:34.877Z,12.07
2023-05-21T03:00:36.880Z,11.50
2023-05-21T03:03:39.017Z,12.33
2023-05-21T03:06:41.073Z,8.93
2023-05-21T03:09:43.091Z,10.35
2023-05-21T03:12:45.589Z,10.95
2023-05-21T03:15:47.755Z,10.00
2023-05-21T03:18:49.765Z,10.07
2023-05-21T03:21:51.846Z,9.32
2023-05-21T03:24:53.898Z,10.30
2023-05-21T03:27:55.949Z,10.07
2023-05-21T03:31:16.462Z,9.95
2023-05-21T03:34:41.393Z,9.30
2023-05-21T03:37:43.713Z,9.82
2023-05-21T03:40:46.648Z,11.07
2023-05-21T03:43:48.669Z,9.52
2023-05-21T03:46:50.912Z,8.13
2023-05-21T03:50:03.044Z,10.83
2023-05-21T03:53:05.079Z,9.27
2023-05-21T03:56:07.538Z,12.48
2023-05-21T03:59:09.904Z,12.73
2023-05-21T04:02:12.114Z,8.15
2023-05-21T04:05:14.185Z,9.20
2023-05-21T04:08:16.379Z,9.55
2023-05-21T04:11:18.476Z,9.13
2023-05-21T04:14:20.479Z,8.70
2023-05-21T04:17:22.673Z,9.25
2023-05-21T04:20:25.414Z,7.53
2023-05-21T04:23:28.020Z,12.45
2023-05-21T04:26:34.042Z,9.38
2023-05-21T04:29:37.750Z,13.68
2023-05-21T04:32:39.951Z,8.98
2023-05-21T04:35:44.653Z,9.63
2023-05-21T04:38:46.681Z,8.40
2023-05-21T04:41:50.804Z,9.52
2023-05-21T04:44:55.544Z,7.30
2023-05-21T04:48:00.767Z,8.48
2023-05-21T04:51:05.849Z,7.70
2023-05-21T04:54:08.071Z,9.73
2023-05-21T04:57:10.726Z,11.57
2023-05-21T05:00:13.517Z,7.97
2023-05-21T05:03:18.338Z,8.32
2023-05-21T05:06:21.548Z,8.83
2023-05-21T05:09:25.285Z,10.77
2023-05-21T05:12:28.009Z,8.60
2023-05-21T05:15:30.351Z,7.28
2023-05-21T05:18:34.144Z,7.72
2023-05-21T05:21:36.419Z,8.33
2023-05-21T05:24:39.640Z,8.87
2023-05-21T05:27:41.593Z,7.57
2023-05-21T05:30:43.720Z,9.02
2023-05-21T05:33:56.635Z,8.18
2023-05-21T05:36:59.853Z,8.20
2023-05-21T05:40:02.370Z,8.03
2023-05-21T05:43:04.716Z,7.28
2023-05-21T05:46:06.693Z,7.00
2023-05-21T05:49:08.951Z,7.28
2023-05-21T05:52:10.948Z,8.83
2023-05-21T05:55:12.972Z,7.50
2023-05-21T05:58:15.062Z,12.20
2023-05-21T06:01:33.022Z,10.82
2023-05-21T06:04:35.052Z,7.70
2023-05-21T06:07:40.979Z,10.07
2023-05-21T06:10:42.992Z,8.37
2023-05-21T06:13:45.781Z,8.30
2023-05-21T06:16:48.821Z,8.05
2023-05-21T06:19:51.041Z,8.63
2023-05-21T06:22:53.487Z,6.83
2023-05-21T06:25:55.903Z,8.13
2023-05-21T06:28:58.355Z,7.35
2023-05-21T06:32:00.429Z,8.63
2023-05-21T06:35:02.715Z,8.95
2023-05-21T06:38:05.640Z,7.50
2023-05-21T06:41:07.788Z,9.90
2023-05-21T06:44:23.095Z,6.88
2023-05-21T06:47:42.018Z,7.28
2023-05-21T06:50:44.262Z,8.00
2023-05-21T06:53:47.120Z,7.23
2023-05-21T06:56:49.437Z,8.17
2023-05-21T06:59:51.959Z,8.75
2023-05-21T07:02:54.601Z,8.77
2023-05-21T07:05:57.798Z,7.57
2023-05-21T07:08:59.834Z,7.60
2023-05-21T07:12:02.350Z,8.10
2023-05-21T07:15:04.702Z,6.68
2023-05-21T07:18:07.191Z,10.02
2023-05-21T07:21:09.471Z,10.10
2023-05-21T07:24:12.531Z,7.23
2023-05-21T07:27:25.259Z,8.57
2023-05-21T07:30:28.280Z,7.10
2023-05-21T07:33:30.734Z,6.85
2023-05-21T07:36:33.737Z,7.32
2023-05-21T07:39:37.858Z,7.37
2023-05-21T07:42:41.127Z,8.23
2023-05-21T07:45:43.842Z,6.57
2023-05-21T07:48:46.606Z,7.10
2023-05-21T07:51:49.556Z,8.95
2023-05-21T07:54:51.753Z,7.60
2023-05-21T07:57:53.920Z,6.67
2023-05-21T08:01:01.878Z,8.25
2023-05-21T08:04:07.111Z,7.10
2023-05-21T08:07:10.818Z,8.10
2023-05-21T08:10:14.110Z,7.27
2023-05-21T08:13:17.356Z,8.07
2023-05-21T08:16:21.374Z,7.97
2023-05-21T08:19:23.758Z,6.82
2023-05-21T08:22:25.944Z,6.47
2023-05-21T08:25:28.049Z,10.10
2023-05-21T08:28:31.426Z,6.80
2023-05-21T08:31:38.452Z,6.95
2023-05-21T08:34:40.948Z,8.95
2023-05-21T08:38:05.899Z,9.27
2023-05-21T08:41:23.401Z,6.83
2023-05-21T08:44:27.597Z,6.73
2023-05-21T08:47:34.332Z,7.40
2023-05-21T08:50:37.450Z,5.68
2023-05-21T08:53:49.692Z,7.07
2023-05-21T08:56:53.500Z,6.40
2023-05-21T08:59:55.828Z,6.20
2023-05-21T09:03:02.854Z,6.72
2023-05-21T09:06:05.834Z,10.25
2023-05-21T09:09:18.766Z,6.53
2023-05-21T09:12:25.597Z,6.83
2023-05-21T09:15:27.957Z,7.17
2023-05-21T09:18:30.455Z,7.18
2023-05-21T09:21:39.805Z,7.90
2023-05-21T09:24:54.135Z,7.95
2023-05-21T09:27:56.337Z,6.60
2023-05-21T09:31:03.665Z,6.80
2023-05-21T09:34:05.954Z,7.05
2023-05-21T09:37:23.682Z,6.65
2023-05-21T09:40:29.601Z,8.32
2023-05-21T09:43:32.232Z,6.63
2023-05-21T09:46:39.860Z,7.60
2023-05-21T09:49:44.085Z,6.82
2023-05-21T09:52:46.318Z,8.30
2023-05-21T09:55:53.424Z,10.43
2023-05-21T09:58:57.570Z,7.30
2023-05-21T10:01:59.930Z,7.10
2023-05-21T10:05:05.456Z,7.57
2023-05-21T10:08:09.288Z,5.95
2023-05-21T10:11:12.344Z,5.82
2023-05-21T10:14:22.436Z,5.60
2023-05-21T10:17:25.737Z,5.80
2023-05-21T10:20:27.981Z,6.78
2023-05-21T10:23:30.307Z,6.05
2023-05-21T10:26:33.134Z,8.98
2023-05-21T10:29:37.189Z,7.30
2023-05-21T10:32:41.510Z,10.03
2023-05-21T10:35:46.153Z,7.55
2023-05-21T10:38:48.187Z,8.35
2023-05-21T10:42:14.113Z,6.75
2023-05-21T10:45:48.003Z,6.80
2023-05-21T10:49:06.166Z,7.17
2023-05-21T10:52:41.976Z,6.47
2023-05-21T10:56:30.906Z,7.43
2023-05-21T11:00:01.982Z,6.28
2023-05-21T11:03:04.892Z,6.77
2023-05-21T11:06:08.504Z,6.63
2023-05-21T11:09:14.608Z,6.70
2023-05-21T11:12:18.058Z,6.40
2023-05-21T11:15:20.740Z,10.48
2023-05-21T11:18:23.232Z,7.27
2023-05-21T11:21:30.592Z,6.37
2023-05-21T11:24:33.877Z,6.22
2023-05-21T11:27:40.577Z,8.57
2023-05-21T11:30:42.813Z,6.82
2023-05-21T11:33:47.780Z,6.73
2023-05-21T11:37:10.133Z,9.57
2023-05-21T11:40:26.073Z,8.50
2023-05-21T11:43:28.303Z,5.93
2023-05-21T11:46:31.111Z,7.18
2023-05-21T11:49:33.874Z,9.07
2023-05-21T11:52:35.851Z,7.30
2023-05-21T11:55:47.405Z,8.55
2023-05-21T11:58:49.374Z,7.20
2023-05-21T12:01:51.508Z,6.88
2023-05-21T12:04:53.755Z,7.33
2023-05-21T12:07:56.708Z,8.23
2023-05-21T12:11:00.111Z,7.82
2023-05-21T12:14:02.411Z,6.28
2023-05-21T12:17:05.384Z,8.25
2023-05-21T12:20:10.766Z,7.93
2023-05-21T12:23:39.317Z,8.47
2023-05-21T12:26:42.090Z,6.70
2023-05-21T12:29:46.685Z,7.20
2023-05-21T12:32:49.071Z,7.53
2023-05-21T12:35:52.585Z,5.67
2023-05-21T12:38:55.200Z,6.27
2023-05-21T12:41:57.273Z,6.25
2023-05-21T12:44:59.340Z,7.72
2023-05-21T12:48:02.295Z,5.95
2023-05-21T12:51:04.291Z,6.67
2023-05-21T12:54:12.929Z,8.97
2023-05-21T12:57:16.114Z,6.93
2023-05-21T13:00:23.910Z,7.18
2023-05-21T13:03:26.761Z,7.68
2023-05-21T13:06:28.773Z,10.90
2023-05-21T13:09:30.718Z,9.17
2023-05-21T13:12:34.165Z,7.45
2023-05-21T13:15:36.164Z,6.15
2023-05-21T13:18:38.267Z,9.27
2023-05-21T13:21:40.328Z,7.53
2023-05-21T13:24:42.304Z,7.23
2023-05-21T13:27:44.922Z,7.45
2023-05-21T13:30:47.064Z,7.78
2023-05-21T13:33:49.171Z,7.70
2023-05-21T13:36:51.297Z,8.33
2023-05-21T13:39:53.602Z,7.87
2023-05-21T13:42:55.682Z,11.73
2023-05-21T13:45:57.854Z,6.25
2023-05-21T13:49:00.755Z,6.35
2023-05-21T13:52:03.844Z,6.47
2023-05-21T13:55:06.562Z,5.80
2023-05-21T13:58:08.609Z,7.03
2023-05-21T14:01:10.855Z,6.15
2023-05-21T14:04:12.952Z,7.03
2023-05-21T14:07:14.911Z,7.70
2023-05-21T14:10:17.351Z,9.47
2023-05-21T14:13:20.246Z,7.00
2023-05-21T14:16:24.917Z,7.47
2023-05-21T14:19:27.077Z,6.50
2023-05-21T14:22:29.105Z,6.50
2023-05-21T14:25:31.137Z,8.43
2023-05-21T14:28:33.192Z,6.68
2023-05-21T14:31:35.484Z,6.88
2023-05-21T14:34:38.578Z,6.68
2023-05-21T14:37:41.394Z,9.23
2023-05-21T14:40:43.421Z,6.57
2023-05-21T14:43:45.484Z,6.35
2023-05-21T14:46:47.660Z,5.88
2023-05-21T14:49:51.644Z,7.40
2023-05-21T14:52:54.369Z,7.77
2023-05-21T14:55:56.403Z,6.70
2023-05-21T14:58:58.421Z,7.90
2023-05-21T15:02:00.436Z,5.97
2023-05-21T15:05:02.479Z,7.07
2023-05-21T15:08:05.855Z,6.07
2023-05-21T15:11:09.831Z,5.93
2023-05-21T15:14:12.532Z,7.30
2023-05-21T15:17:14.578Z,7.80
2023-05-21T15:20:17.044Z,7.35
2023-05-21T15:23:19.064Z,7.20
2023-05-21T15:26:21.706Z,7.23
2023-05-21T15:29:23.830Z,7.15
2023-05-21T15:32:26.128Z,6.18
2023-05-21T15:35:28.218Z,7.45
2023-05-21T15:38:30.592Z,5.60
2023-05-21T15:41:39.534Z,7.77
2023-05-21T15:44:41.976Z,6.60
2023-05-21T15:47:44.094Z,5.38
2023-05-21T15:50:46.141Z,5.88
2023-05-21T15:53:48.139Z,7.27
2023-05-21T15:56:50.518Z,7.93
2023-05-21T15:59:52.650Z,7.00
2023-05-21T16:02:54.697Z,6.15
2023-05-21T16:05:56.701Z,6.65
2023-05-21T16:08:59.753Z,6.87
2023-05-21T16:12:01.776Z,7.70
2023-05-21T16:15:04.437Z,7.78
2023-05-21T16:18:08.336Z,8.07
2023-05-21T16:21:10.618Z,8.48
2023-05-21T16:24:12.642Z,9.60
2023-05-21T16:27:14.726Z,6.20
2023-05-21T16:30:16.747Z,7.30
2023-05-21T16:33:19.442Z,7.03
2023-05-21T16:36:21.405Z,7.18
2023-05-21T16:39:23.417Z,10.83
2023-05-21T16:42:25.446Z,6.57
2023-05-21T16:45:27.394Z,6.97
2023-05-21T16:48:29.395Z,6.35
2023-05-21T16:51:31.626Z,6.47
2023-05-21T16:54:33.908Z,6.67
2023-05-21T16:57:36.251Z,9.77
2023-05-21T17:00:38.301Z,9.50
2023-05-21T17:03:43.087Z,6.50
2023-05-21T17:06:45.460Z,8.20
2023-05-21T17:09:47.563Z,5.90
2023-05-21T17:12:49.626Z,7.60
2023-05-21T17:15:51.737Z,7.25
2023-05-21T17:18:53.837Z,6.53
2023-05-21T17:21:56.275Z,8.10
2023-05-21T17:24:58.838Z,8.97
2023-05-21T17:28:00.831Z,7.83
2023-05-21T17:31:03.406Z,6.43
2023-05-21T17:34:05.497Z,7.97
2023-05-21T17:37:07.453Z,6.10
2023-05-21T17:40:09.905Z,6.80
2023-05-21T17:43:11.906Z,6.83
2023-05-21T17:46:17.482Z,7.10
2023-05-21T17:49:19.682Z,6.10
2023-05-21T17:52:21.740Z,7.50
2023-05-21T17:55:23.714Z,7.97
2023-05-21T17:58:25.720Z,6.93
2023-05-21T18:01:28.026Z,7.45
2023-05-21T18:04:30.936Z,8.30
2023-05-21T18:07:32.945Z,7.43
2023-05-21T18:10:34.903Z,7.73
2023-05-21T18:13:36.946Z,7.97
2023-05-21T18:16:39.074Z,7.45
2023-05-21T18:19:41.237Z,7.45
2023-05-21T18:22:44.650Z,8.23
2023-05-21T18:25:46.757Z,7.80
2023-05-21T18:28:49.873Z,6.47
2023-05-21T18:31:52.368Z,9.90
2023-05-21T18:34:54.638Z,11.57
2023-05-21T18:37:57.841Z,12.70
2023-05-21T18:41:03.308Z,6.90
2023-05-21T18:44:06.306Z,10.60
2023-05-21T18:47:08.961Z,7.05
2023-05-21T18:50:15.473Z,8.50
2023-05-21T18:53:17.922Z,8.27
2023-05-21T18:56:23.051Z,9.60
2023-05-21T18:59:25.626Z,8.10
2023-05-21T19:02:29.717Z,7.60
2023-05-21T19:05:32.342Z,7.25
2023-05-21T19:08:34.776Z,7.90
2023-05-21T19:11:37.619Z,8.30
2023-05-21T19:14:44.861Z,8.73
2023-05-21T19:17:48.144Z,11.30
2023-05-21T19:20:50.683Z,7.85
2023-05-21T19:23:54.058Z,7.50
2023-05-21T19:26:57.073Z,6.87
2023-05-21T19:29:59.545Z,10.33
2023-05-21T19:33:02.085Z,8.45
2023-05-21T19:36:04.675Z,7.53
2023-05-21T19:39:09.081Z,7.63
2023-05-21T19:42:11.711Z,7.83
2023-05-21T19:45:15.632Z,9.47
2023-05-21T19:48:18.083Z,7.45
2023-05-21T19:51:20.590Z,8.68
2023-05-21T19:54:23.301Z,7.38
2023-05-21T19:57:25.762Z,8.57
2023-05-21T20:00:29.346Z,7.50
2023-05-21T20:03:35.836Z,9.27
2023-05-21T20:06:38.605Z,7.80
2023-05-21T20:09:40.906Z,8.98
2023-05-21T20:12:43.073Z,9.20
2023-05-21T20:15:45.048Z,7.80
2023-05-21T20:18:47.548Z,8.60
2023-05-21T20:21:49.610Z,8.40
2023-05-21T20:24:51.600Z,8.30
2023-05-21T20:27:53.762Z,9.00
2023-05-21T20:31:00.797Z,8.03
2023-05-21T20:34:07.724Z,7.40
2023-05-21T20:37:09.951Z,9.20
2023-05-21T20:40:14.783Z,7.32
2023-05-21T20:43:18.593Z,7.60
2023-05-21T20:46:21.166Z,7.47
2023-05-21T20:49:24.943Z,7.68
2023-05-21T20:52:27.279Z,7.20
2023-05-21T20:55:34.673Z,9.27
2023-05-21T20:58:36.811Z,9.47
2023-05-21T21:01:40.831Z,9.38
2023-05-21T21:04:43.677Z,7.82
2023-05-21T21:07:45.802Z,8.25
2023-05-21T21:10:47.879Z,8.23
2023-05-21T21:13:50.110Z,7.77
2023-05-21T21:16:52.078Z,14.20
2023-05-21T21:19:54.012Z,8.02
2023-05-21T21:22:56.087Z,9.25
2023-05-21T21:25:58.077Z,7.78
2023-05-21T21:29:00.031Z,8.83
2023-05-21T21:32:02.313Z,10.17
2023-05-21T21:35:04.492Z,10.05
2023-05-21T21:38:06.569Z,10.13
2023-05-21T21:41:08.932Z,12.73
2023-05-21T21:44:10.923Z,9.27
2023-05-21T21:47:13.293Z,8.07
2023-05-21T21:50:15.572Z,9.32
2023-05-21T21:53:17.843Z,10.10
2023-05-21T21:56:19.861Z,8.15
2023-05-21T21:59:22.481Z,10.20
2023-05-21T22:02:24.564Z,10.98
2023-05-21T22:05:26.601Z,10.38
2023-05-21T22:08:28.863Z,11.13
2023-05-21T22:11:30.953Z,8.50
2023-05-21T22:14:33.137Z,6.70
2023-05-21T22:17:35.213Z,6.82
2023-05-21T22:20:38.420Z,6.07
2023-05-21T22:23:40.598Z,7.28
2023-05-21T22:26:42.593Z,6.50
2023-05-21T22:29:44.652Z,8.03
2023-05-21T22:32:48.150Z,6.13
2023-05-21T22:35:50.720Z,5.20
2023-05-21T22:38:52.745Z,6.25
2023-05-21T22:41:54.771Z,7.60
2023-05-21T22:44:56.893Z,6.13
2023-05-21T22:48:01.716Z,5.18
2023-05-21T22:51:04.695Z,5.70
2023-05-21T22:54:06.802Z,7.72
2023-05-21T22:57:09.106Z,9.45
2023-05-21T23:00:11.705Z,5.57
2023-05-21T23:03:13.791Z,5.30
2023-05-21T23:06:15.884Z,6.63
2023-05-21T23:09:17.860Z,7.75
2023-05-21T23:12:19.849Z,6.03
2023-05-21T23:15:22.711Z,6.53
2023-05-21T23:18:26.178Z,6.05
2023-05-21T23:21:28.538Z,5.82
2023-05-21T23:24:30.799Z,6.68
2023-05-21T23:27:32.771Z,5.95
2023-05-21T23:30:34.722Z,7.10
2023-05-21T23:33:36.677Z,6.40
2023-05-21T23:36:38.573Z,6.10
2023-05-21T23:39:40.547Z,4.82
2023-05-21T23:42:43.216Z,5.90
2023-05-21T23:45:45.448Z,5.77
2023-05-21T23:48:47.392Z,6.20
2023-05-21T23:51:52.318Z,4.65
2023-05-21T23:54:54.297Z,5.45
2023-05-21T23:57:56.271Z,7.47
